Yuma MCAS/Yuma International Airport
KNYL : now visible

Airfield :











YOU CAN JOIN US ON...

 
LOGIN :

Register | Disclaimer

   EN    FR    IT 

 









Legend :    VFR   Marginal VFR   IFR   Intensive IFR   Very Intensive IFR
Visi :
Ceiling :
>= 8 km
>= 3000ft
5 to 8 km
1000 to 3000 ft
1500m to 5 km
500 to 1000 ft
800 to 1500m
200 to 500 ft
< 800m
< 200 ft
Symbols :   Thunderstorms  Fog  Heavy snow  Heavy precipitations  Wind > 20 kt






- Airport Elevation : 213 ft
- IATA code : YUM


KNYL - Yuma MCAS/Yuma International

CURRENT METAR :
  • 100457Z AUTO 29005KT 10SM CLR 16/05 A3002 RMK AO2 SLP166 T01610050 $

EXPIRED METARs :
  • 100357Z AUTO 29003KT 10SM CLR 17/04 A3002 RMK AO2 SLP164 T01720039 $
  • 100257Z AUTO 30005KT 10SM CLR 18/02 A3001 RMK AO2 SLP161 T01780022 53003 $

TAF TAF KNYL
Valid from the 10 at 03:00 until the 11 at 03:00 UTC


1003/1103 28005KT 9999 FEW100 QNH2998INS
BECMG 1009/1011 33005KT 9999 OVC050 QNH2998INS
BECMG 1020/1022 31007KT 9999 OVC050 QNH2987INS AUTOMATED SENSOR METWATCH 1003 TIL 1014 T13/1011Z T21/1021Z



MET'MAP, your aeronautical weather chart ! - Copyright ORBIFLY December 2007 - Disclaimer

ORBIFLY MET'MAP TEAM :

Programming & Development : Alexandra Zaïnal
Concept & original design : Baudouin d'Aumeries
Assistance for programming : Marc-Olivier Méhu
Technical & hardware support : Manuel Goepfert

Contact : metmap@orbifly.com




SOURCES & CREDITS :

   NOAA       Earth
Advisory